Time;durP1;ratioP1;P1;durP2;ratioP2;P2;SDS_P1;SDS_P2;PMS_P1;PMS_P2;Temp;Humidity;BMP_temperature;BMP_pressure;BME280_temperature;BME280_humidity;BME280_pressure;Samples;Min_cycle;Max_cycle;Signal;HPM_P1;HPM_P2
2023/06/21 06:07:12;;;;;;;11.38;8.80;;;;;;;34.74;37.20;100379.53;6631399;26;122666;-87
2023/06/21 06:10:16;;;;;;;9.45;8.35;;;;;;;36.07;34.35;100376.34;6635449;26;34252;-86
2023/06/21 06:13:18;;;;;;;14.90;8.60;;;;;;;37.24;32.50;100386.03;6635393;26;34066;-89
2023/06/21 06:16:21;;;;;;;9.82;8.57;;;;;;;36.55;33.31;100385.22;6647456;26;33758;-90
2023/06/21 06:19:45;;;;;;;10.25;9.07;;;;;;;36.87;33.21;100376.37;6632625;26;34039;-89
2023/06/21 06:22:48;;;;;;;10.80;9.02;;;;;;;37.91;31.71;100380.56;6616034;26;33674;-90
2023/06/21 06:25:56;;;;;;;10.77;9.40;;;;;;;36.96;33.04;100379.56;6634114;26;33677;-90
2023/06/21 06:39:46;;;;;;;13.97;10.47;;;;;;;33.15;38.63;100375.63;6646674;26;20055;-89
2023/06/21 06:42:49;;;;;;;16.75;12.10;;;;;;;31.17;44.12;100365.09;6648294;26;34157;-90
2023/06/21 06:45:52;;;;;;;16.27;11.18;;;;;;;29.96;47.18;100365.78;6638811;26;33734;-89
2023/06/21 06:48:55;;;;;;;13.60;11.68;;;;;;;29.40;50.28;100359.41;6630056;26;33818;-89
2023/06/21 06:51:58;;;;;;;13.40;10.63;;;;;;;28.57;51.61;100369.06;6629337;26;33689;-89
2023/06/21 06:55:01;;;;;;;17.60;11.10;;;;;;;28.90;51.96;100372.13;6628108;26;33637;-88
2023/06/21 06:58:04;;;;;;;18.58;11.70;;;;;;;29.67;49.13;100374.06;6628166;26;33799;-89
2023/06/21 07:01:09;;;;;;;15.02;11.90;;;;;;;29.12;50.84;100363.84;6631762;26;34464;-88
2023/06/21 07:04:11;;;;;;;12.43;10.95;;;;;;;29.11;51.09;100361.34;6629898;26;33770;-89
2023/06/21 07:07:16;;;;;;;12.75;10.15;;;;;;;28.63;51.93;100360.09;6631635;26;34859;-88
2023/06/21 07:10:19;;;;;;;12.68;11.27;;;;;;;29.28;51.82;100370.06;6638664;26;33786;-89
2023/06/21 07:13:23;;;;;;;21.05;10.98;;;;;;;29.32;50.32;100368.63;6637250;26;33547;-88
2023/06/21 07:16:26;;;;;;;12.77;11.48;;;;;;;29.54;51.43;100369.41;6635264;26;34069;-88
2023/06/21 07:19:29;;;;;;;51.88;11.95;;;;;;;29.66;50.40;100371.56;6635863;26;33876;-89
2023/06/21 07:22:32;;;;;;;16.75;11.80;;;;;;;30.49;49.65;100367.81;6636403;26;33707;-89
2023/06/21 07:25:34;;;;;;;17.77;11.00;;;;;;;30.91;47.88;100364.91;6635839;26;33732;-88
2023/06/21 07:28:37;;;;;;;128.65;16.90;;;;;;;30.97;48.25;100357.72;6651001;26;34427;-88
2023/06/21 07:31:40;;;;;;;19.55;11.88;;;;;;;31.45;46.99;100369.47;6650895;26;35056;-89
2023/06/21 07:34:43;;;;;;;12.85;10.80;;;;;;;30.96;46.14;100361.53;6640025;26;34061;-89
2023/06/21 07:37:46;;;;;;;18.73;10.75;;;;;;;30.95;48.60;100359.00;6638775;26;33867;-90
2023/06/21 07:40:48;;;;;;;13.35;10.90;;;;;;;31.08;49.03;100359.00;6641782;26;33832;-90
2023/06/21 07:43:59;;;;;;;14.27;10.67;;;;;;;31.62;47.66;100352.56;6639094;26;35310;-89
2023/06/21 07:54:30;;;;;;;12.93;11.15;;;;;;;31.24;48.99;100357.69;6638722;26;20071;-90
2023/06/21 07:57:33;;;;;;;13.65;10.88;;;;;;;31.58;46.90;100363.94;6639374;26;34526;-89
2023/06/21 09:29:32;;;;;;;10.75;9.75;;;;;;;37.16;32.40;100378.19;6649222;26;20067;-89
2023/06/21 09:32:35;;;;;;;15.63;10.13;;;;;;;37.23;32.83;100376.09;6636325;26;34866;-88
2023/06/21 09:35:39;;;;;;;12.20;10.23;;;;;;;37.32;33.64;100382.00;6639885;26;33782;-90
2023/06/21 09:38:42;;;;;;;14.43;11.02;;;;;;;38.51;33.23;100374.22;6639316;26;35238;-89
2023/06/21 09:41:45;;;;;;;14.65;11.07;;;;;;;38.85;31.24;100385.00;6637084;26;33478;-89
2023/06/21 09:44:48;;;;;;;14.52;11.02;;;;;;;37.20;34.03;100387.66;6630380;26;33905;-88
2023/06/21 09:47:53;;;;;;;19.10;11.65;;;;;;;36.99;33.51;100381.78;6635542;26;34553;-90
2023/06/21 09:50:56;;;;;;;11.80;10.60;;;;;;;36.00;36.24;100382.84;6636879;26;34291;-91
2023/06/21 09:54:06;;;;;;;15.70;11.38;;;;;;;34.74;38.71;100383.09;6636826;26;34307;-90
2023/06/21 09:57:09;;;;;;;13.00;10.75;;;;;;;35.25;37.91;100390.94;6640369;26;34205;-88
2023/06/21 10:00:13;;;;;;;13.05;10.75;;;;;;;35.28;37.77;100384.94;6637183;26;34677;-89
2023/06/21 10:03:29;;;;;;;12.73;11.43;;;;;;;35.25;38.28;100382.69;6631444;26;34463;-90
2023/06/21 10:06:37;;;;;;;13.00;11.60;;;;;;;35.09;38.96;100381.47;6628498;26;33961;-89
2023/06/21 10:48:09;;;;;;;13.40;10.82;;;;;;;34.01;42.54;100392.19;6639664;26;20076;-88
2023/06/21 10:54:37;;;;;;;12.88;10.35;;;;;;;33.17;43.13;100395.47;6636422;26;35032;-91
2023/06/21 10:57:43;;;;;;;12.35;10.63;;;;;;;32.68;45.00;100398.84;6647436;26;34150;-91
2023/06/21 11:04:50;;;;;;;14.75;10.75;;;;;;;32.41;46.19;100393.53;6637445;26;20071;-83
2023/06/21 11:08:01;;;;;;;12.70;11.38;;;;;;;32.33;47.44;100385.53;6636338;26;34018;-84
2023/06/21 11:11:03;;;;;;;12.55;10.90;;;;;;;31.77;47.79;100393.41;6635442;26;33908;-84
2023/06/21 11:14:06;;;;;;;11.93;10.77;;;;;;;32.10;48.06;100395.16;6636019;26;33564;-84
2023/06/21 11:17:14;;;;;;;11.88;10.30;;;;;;;32.12;47.66;100396.63;6635824;26;33869;-84
2023/06/21 11:20:19;;;;;;;14.18;10.07;;;;;;;32.13;47.81;100402.97;6636002;26;35253;-89
2023/06/21 11:23:22;;;;;;;12.25;10.88;;;;;;;32.27;47.76;100406.47;6632912;26;33512;-88
2023/06/21 11:26:27;;;;;;;11.88;10.65;;;;;;;32.60;46.71;100401.84;6651569;26;34004;-84
2023/06/21 11:29:35;;;;;;;12.27;10.95;;;;;;;32.70;48.21;100398.59;6651093;26;34139;-84
2023/06/21 11:32:54;;;;;;;13.03;11.70;;;;;;;33.41;45.68;100401.12;6640993;26;35316;-84
2023/06/21 11:36:04;;;;;;;15.40;11.07;;;;;;;33.34;47.23;100396.56;6632825;26;33647;-85
2023/06/21 11:39:07;;;;;;;12.15;10.80;;;;;;;33.40;47.62;100396.72;6634438;26;34352;-85
2023/06/21 11:42:15;;;;;;;14.73;11.02;;;;;;;33.80;46.79;100399.03;6634683;26;33802;-85
2023/06/21 11:45:19;;;;;;;12.30;11.07;;;;;;;34.21;43.82;100396.63;6637881;26;33842;-84
2023/06/21 11:48:25;;;;;;;12.88;11.45;;;;;;;34.27;43.51;100386.56;6637135;26;33949;-84
2023/06/21 11:51:32;;;;;;;14.60;10.85;;;;;;;33.87;44.56;100383.28;6636649;26;34733;-85
2023/06/21 11:54:37;;;;;;;11.48;10.27;;;;;;;32.99;47.27;100380.66;6637798;26;33747;-84
2023/06/21 11:57:44;;;;;;;11.68;9.65;;;;;;;33.31;47.22;100369.53;6637765;26;34059;-84
2023/06/21 12:00:47;;;;;;;10.68;9.75;;;;;;;33.67;43.87;100375.28;6637713;26;33570;-84
2023/06/21 12:04:00;;;;;;;10.93;9.82;;;;;;;33.51;43.57;100368.50;6642095;26;33960;-84
2023/06/21 12:07:04;;;;;;;11.07;10.18;;;;;;;33.64;44.48;100367.50;6644552;26;33837;-84
2023/06/21 12:10:07;;;;;;;11.68;10.57;;;;;;;33.88;44.53;100362.94;6643603;26;34918;-84
2023/06/21 12:13:14;;;;;;;12.07;10.43;;;;;;;34.55;42.68;100363.88;6635849;26;33944;-84
2023/06/21 12:16:17;;;;;;;12.02;10.82;;;;;;;34.54;42.63;100348.44;6633335;26;34415;-85
2023/06/21 12:19:21;;;;;;;12.52;11.15;;;;;;;35.11;41.79;100353.66;6632567;26;34629;-85
2023/06/21 12:22:24;;;;;;;14.15;10.93;;;;;;;34.85;41.14;100364.94;6634193;26;34474;-84
2023/06/21 12:25:26;;;;;;;13.98;11.15;;;;;;;34.89;42.13;100363.34;6634490;26;33779;-85
2023/06/21 12:28:31;;;;;;;12.02;10.82;;;;;;;35.25;41.25;100359.78;6633671;26;34568;-86
2023/06/21 12:31:34;;;;;;;12.23;10.90;;;;;;;34.68;42.65;100364.78;6631482;26;33670;-87
2023/06/21 12:34:39;;;;;;;15.13;11.52;;;;;;;34.93;42.56;100367.31;6632168;26;33633;-87
2023/06/21 12:37:42;;;;;;;14.95;11.63;;;;;;;34.83;41.93;100363.47;6631709;26;33537;-87
2023/06/21 12:41:00;;;;;;;13.10;11.68;;;;;;;34.65;43.35;100355.06;6631763;26;34507;-87
2023/06/21 12:44:05;;;;;;;13.25;11.93;;;;;;;34.73;42.28;100358.56;6633441;26;34444;-88
2023/06/21 12:47:09;;;;;;;13.32;11.75;;;;;;;34.43;43.86;100352.00;6633707;26;33876;-88
2023/06/21 12:50:18;;;;;;;12.82;11.40;;;;;;;34.55;42.86;100366.63;6633399;26;33936;-87
2023/06/21 12:53:41;;;;;;;;;;;;;;;34.47;43.72;100358.72;6633808;26;34473;-86
2023/06/21 12:56:46;;;;;;;14.98;11.75;;;;;;;33.56;45.14;100356.81;6634052;26;34166;-85
2023/06/21 12:59:49;;;;;;;16.50;12.35;;;;;;;33.23;46.37;100341.53;6632671;26;34264;-86
2023/06/21 13:02:52;;;;;;;16.02;12.45;;;;;;;33.06;46.37;100334.72;6633707;26;33671;-86
2023/06/21 13:05:56;;;;;;;15.82;12.25;;;;;;;33.14;46.84;100332.72;6633407;26;33809;-86
2023/06/21 13:08:58;;;;;;;16.98;12.65;;;;;;;33.03;46.18;100326.09;6634090;26;34336;-85
2023/06/21 13:12:01;;;;;;;14.38;12.88;;;;;;;33.04;47.38;100325.84;6633575;26;34175;-85
2023/06/21 13:15:05;;;;;;;12.68;11.38;;;;;;;32.90;47.48;100329.78;6633864;26;33630;-86
2023/06/21 13:18:08;;;;;;;12.48;11.30;;;;;;;33.28;46.75;100331.50;6634810;26;34030;-85
2023/06/21 13:21:17;;;;;;;12.88;11.50;;;;;;;33.16;45.60;100322.34;6634921;26;34444;-85
2023/06/21 13:24:20;;;;;;;12.48;11.18;;;;;;;32.86;46.30;100318.41;6635468;26;34648;-85
2023/06/21 13:27:23;;;;;;;11.20;10.20;;;;;;;32.82;46.77;100317.16;6635980;26;33459;-85
2023/06/21 13:30:25;;;;;;;11.90;10.40;;;;;;;32.70;45.09;100324.47;6636559;26;33650;-85
2023/06/21 13:33:28;;;;;;;11.68;9.93;;;;;;;32.64;46.24;100321.53;6635883;26;33785;-85
2023/06/21 13:36:31;;;;;;;14.15;10.98;;;;;;;33.28;44.66;100317.75;6632618;26;34342;-85
2023/06/21 13:39:34;;;;;;;12.13;11.02;;;;;;;33.22;45.65;100312.38;6633965;26;33923;-85
2023/06/21 13:42:37;;;;;;;11.82;10.70;;;;;;;33.16;45.12;100308.59;6634712;26;33825;-85
2023/06/21 13:45:41;;;;;;;13.00;10.65;;;;;;;33.03;45.45;100295.88;6633555;26;33711;-85
2023/06/21 13:48:44;;;;;;;11.60;10.45;;;;;;;33.57;43.95;100301.59;6635006;26;34270;-85
2023/06/21 13:51:46;;;;;;;12.10;10.80;;;;;;;33.42;44.58;100299.22;6633139;26;34767;-86
2023/06/21 13:54:50;;;;;;;11.80;10.68;;;;;;;33.40;44.70;100300.50;6633617;26;34776;-86
2023/06/21 13:57:52;;;;;;;11.70;10.52;;;;;;;33.38;44.83;100300.72;6634069;26;33832;-87
2023/06/21 14:00:56;;;;;;;12.32;10.55;;;;;;;32.70;45.95;100300.59;6633391;26;34285;-85
2023/06/21 14:03:59;;;;;;;10.88;9.77;;;;;;;32.69;45.95;100303.56;6632948;26;33899;-86
2023/06/21 14:07:02;;;;;;;12.45;10.13;;;;;;;33.02;44.79;100294.16;6633734;26;34562;-86
2023/06/21 14:10:06;;;;;;;11.27;10.15;;;;;;;33.18;44.41;100301.81;6633750;26;34261;-86
2023/06/21 14:13:08;;;;;;;11.18;10.05;;;;;;;33.01;43.03;100298.84;6633757;26;33635;-86
2023/06/21 14:16:11;;;;;;;13.68;10.38;;;;;;;33.33;43.26;100295.94;6634594;26;33687;-85
2023/06/21 14:19:14;;;;;;;11.55;10.18;;;;;;;33.37;42.87;100303.72;6634166;26;34367;-85
2023/06/21 14:22:17;;;;;;;11.18;9.98;;;;;;;32.57;45.32;100315.28;6634446;26;34764;-85
2023/06/21 14:25:20;;;;;;;12.48;10.18;;;;;;;32.67;45.22;100323.84;6635899;26;33896;-84
2023/06/21 14:28:23;;;;;;;13.30;10.00;;;;;;;32.46;46.59;100325.09;6636092;26;34654;-85
2023/06/21 14:31:25;;;;;;;13.85;10.07;;;;;;;32.77;46.03;100314.25;6635897;26;33794;-85
2023/06/21 14:34:28;;;;;;;12.50;10.18;;;;;;;32.51;46.79;100318.91;6635716;26;33956;-84
2023/06/21 14:37:31;;;;;;;13.32;9.65;;;;;;;32.76;45.77;100320.81;6635958;26;34054;-89
2023/06/21 14:40:34;;;;;;;13.35;9.70;;;;;;;32.73;46.64;100321.28;6635505;26;34055;-89
2023/06/21 14:43:37;;;;;;;10.77;9.70;;;;;;;32.91;45.87;100323.22;6634179;26;33657;-89
2023/06/21 14:46:40;;;;;;;11.55;10.05;;;;;;;32.98;46.03;100325.94;6635658;26;33883;-89
2023/06/21 14:49:43;;;;;;;12.90;9.68;;;;;;;32.71;45.98;100335.22;6634853;26;33849;-85
2023/06/21 14:52:46;;;;;;;10.80;9.52;;;;;;;32.67;46.40;100340.34;6635523;26;33829;-86
2023/06/21 14:55:48;;;;;;;11.10;9.50;;;;;;;32.59;46.76;100343.38;6634854;26;34143;-85
2023/06/21 14:58:55;;;;;;;10.90;9.02;;;;;;;32.70;45.54;100338.19;6635584;26;34074;-85
2023/06/21 15:01:58;;;;;;;18.27;9.73;;;;;;;32.83;45.81;100342.75;6636037;26;33715;-85
2023/06/21 15:05:01;;;;;;;10.45;9.50;;;;;;;32.93;45.04;100343.91;6635150;26;33947;-85
2023/06/21 15:08:04;;;;;;;12.10;9.23;;;;;;;32.94;44.67;100342.00;6636319;26;33667;-85
2023/06/21 15:11:06;;;;;;;9.80;8.85;;;;;;;32.91;44.53;100346.03;6636372;26;34434;-85
2023/06/21 15:14:09;;;;;;;10.15;9.23;;;;;;;32.98;44.12;100337.75;6635842;26;34080;-85
2023/06/21 15:17:12;;;;;;;9.85;9.00;;;;;;;32.85;44.32;100335.94;6635956;26;34147;-85
2023/06/21 15:20:14;;;;;;;12.70;9.50;;;;;;;32.62;45.16;100325.63;6636202;26;33740;-85
2023/06/21 15:23:17;;;;;;;12.48;9.98;;;;;;;32.30;45.99;100318.22;6636856;26;33595;-85
2023/06/21 15:26:20;;;;;;;10.52;9.55;;;;;;;32.44;46.56;100318.16;6635590;26;33666;-85
2023/06/21 15:29:23;;;;;;;13.50;9.68;;;;;;;32.69;46.02;100311.81;6635696;26;34611;-85
2023/06/21 15:32:25;;;;;;;10.40;9.38;;;;;;;32.35;46.84;100303.81;6636457;26;33896;-85
